Time;durP1;ratioP1;P1;durP2;ratioP2;P2;SDS_P1;SDS_P2;PMS_P1;PMS_P2;Temp;Humidity;BMP_temperature;BMP_pressure;BME280_temperature;BME280_humidity;BME280_pressure;Samples;Min_cycle;Max_cycle;Signal;HPM_P1;HPM_P2
2020/12/18 00:02:40;;;;;;;;;;;;;;;3.82;75.19;99112.06;1708611;83;20657;-86
2020/12/18 00:05:26;;;;;;;;;;;;;;;3.84;75.20;99111.58;1679438;85;25541;-86
2020/12/18 00:08:13;;;;;;;;;;;;;;;3.83;75.23;99117.64;1714728;83;20338;-86
2020/12/18 00:11:02;;;;;;;;;;;;;;;3.81;75.23;99114.28;1710945;83;25090;-85
2020/12/18 00:13:48;;;;;;;;;;;;;;;3.79;75.24;99111.73;1716130;82;21847;-86
2020/12/18 00:16:35;;;;;;;;;;;;;;;3.76;75.24;99119.58;1709237;83;27683;-86
2020/12/18 00:19:22;;;;;;;;;;;;;;;3.75;75.22;99119.64;1735765;82;24777;-87
2020/12/18 00:22:09;;;;;;;;;;;;;;;3.77;75.25;99119.13;1707782;82;20431;-87
2020/12/18 00:24:56;;;;;;;;;;;;;;;3.78;75.26;99110.47;1709697;83;24883;-86
2020/12/18 00:27:42;;;;;;;;;;;;;;;3.78;75.25;99107.44;1725086;82;22159;-87
2020/12/18 00:30:32;;;;;;;;;;;;;;;3.81;75.26;99106.52;1701808;82;26613;-86
2020/12/18 00:33:18;;;;;;;;;;;;;;;3.80;75.29;99104.81;1727968;82;24588;-87
2020/12/18 00:36:04;;;;;;;;;;;;;;;3.79;75.29;99111.73;1728403;82;20482;-87
2020/12/18 00:38:51;;;;;;;;;;;;;;;3.77;75.28;99114.80;1681763;84;24916;-87
2020/12/18 00:41:40;;;;;;;;;;;;;;;3.77;75.29;99117.39;1700480;83;22391;-87
2020/12/18 00:44:26;;;;;;;;;;;;;;;3.76;75.30;99125.23;1733627;82;26188;-87
2020/12/18 00:47:13;;;;;;;;;;;;;;;3.76;75.31;99135.11;1717677;83;24804;-87
2020/12/18 00:50:00;;;;;;;;;;;;;;;3.78;75.31;99132.48;1732941;82;20297;-87
2020/12/18 00:52:46;;;;;;;;;;;;;;;3.81;75.33;99134.14;1734364;82;25926;-86
2020/12/18 00:55:33;;;;;;;;;;;;;;;3.83;75.34;99137.06;1721370;83;21885;-87
2020/12/18 00:58:19;;;;;;;;;;;;;;;3.78;75.37;99134.63;1709742;83;26928;-87
2020/12/18 01:01:06;;;;;;;;;;;;;;;3.75;75.36;99132.14;1714159;83;24790;-88
2020/12/18 01:03:53;;;;;;;;;;;;;;;3.72;75.38;99135.25;1728069;82;20564;-87
2020/12/18 01:06:39;;;;;;;;;;;;;;;3.72;75.37;99138.69;1731838;82;25250;-87
2020/12/18 01:09:26;;;;;;;;;;;;;;;3.75;75.39;99128.70;1722359;83;22164;-87
2020/12/18 01:12:12;;;;;;;;;;;;;;;3.74;75.39;99131.73;1713730;82;26350;-87
2020/12/18 01:14:59;;;;;;;;;;;;;;;3.72;75.43;99120.58;1761555;80;24669;-87
2020/12/18 01:17:45;;;;;;;;;;;;;;;3.69;75.44;99120.69;1725504;80;20525;-86
2020/12/18 01:20:31;;;;;;;;;;;;;;;3.68;75.45;99125.90;1751864;80;24881;-87
2020/12/18 01:23:18;;;;;;;;;;;;;;;3.63;75.48;99123.45;1758529;80;21473;-87
2020/12/18 01:26:08;;;;;;;;;;;;;;;3.62;75.49;99126.94;1743488;80;27032;-87
2020/12/18 01:28:54;;;;;;;;;;;;;;;3.57;75.51;99126.23;1720616;82;24580;-87
2020/12/18 01:31:41;;;;;;;;;;;;;;;3.54;75.54;99134.10;1755932;80;20660;-86
2020/12/18 01:34:27;;;;;;;;;;;;;;;3.55;75.54;99130.59;1761010;80;24946;-86
2020/12/18 01:37:14;;;;;;;;;;;;;;;3.58;75.58;99125.78;1767547;80;22230;-87
2020/12/18 01:40:00;;;;;;;;;;;;;;;3.58;75.61;99118.02;1763235;80;26411;-86
2020/12/18 01:42:34;;;;;;;;;;;;;;;3.60;75.65;99120.95;1752038;80;25452;-86
2020/12/18 01:45:20;;;;;;;;;;;;;;;3.64;75.66;99121.72;1770378;80;20323;-86
2020/12/18 01:48:07;;;;;;;;;;;;;;;3.66;75.72;99125.94;1766391;80;24923;-86
2020/12/18 01:50:54;;;;;;;;;;;;;;;3.67;75.75;99131.52;1766982;80;21917;-86
2020/12/18 01:53:41;;;;;;;;;;;;;;;3.68;75.79;99130.63;1758173;80;26135;-86
2020/12/18 01:56:27;;;;;;;;;;;;;;;3.71;75.79;99124.50;1764174;80;24696;-86
2020/12/18 01:59:14;;;;;;;;;;;;;;;3.74;75.84;99140.80;1729748;81;20717;-86
2020/12/18 02:02:00;;;;;;;;;;;;;;;3.68;75.85;99153.92;1729393;81;24903;-87
2020/12/18 02:04:47;;;;;;;;;;;;;;;3.67;75.92;99159.14;1726882;82;23145;-87
2020/12/18 02:07:40;;;;;;;;;;;;;;;3.70;75.93;99157.77;1752496;80;26106;-86
2020/12/18 02:10:26;;;;;;;;;;;;;;;3.78;75.95;99136.36;1748393;80;24828;-87
2020/12/18 02:13:13;;;;;;;;;;;;;;;3.88;75.98;99132.58;1766169;80;20370;-86
2020/12/18 02:16:00;;;;;;;;;;;;;;;3.97;76.00;99134.05;1750052;81;25108;-86
2020/12/18 02:18:46;;;;;;;;;;;;;;;4.04;76.04;99120.84;1724224;82;23396;-86
2020/12/18 02:21:33;;;;;;;;;;;;;;;4.06;76.06;99120.80;1748552;80;25855;-86
2020/12/18 02:24:20;;;;;;;;;;;;;;;4.04;76.10;99121.28;1752920;80;24618;-86
2020/12/18 02:27:07;;;;;;;;;;;;;;;3.96;76.12;99127.17;1747975;81;20262;-86
2020/12/18 02:29:54;;;;;;;;;;;;;;;3.94;76.12;99132.84;1726704;82;25013;-86
2020/12/18 02:32:41;;;;;;;;;;;;;;;3.94;76.10;99135.42;1755475;81;22859;-86
2020/12/18 02:35:27;;;;;;;;;;;;;;;3.91;76.11;99132.95;1746655;81;26110;-86
2020/12/18 02:38:14;;;;;;;;;;;;;;;3.89;76.11;99120.05;1751193;81;25604;-87
2020/12/18 02:41:00;;;;;;;;;;;;;;;3.93;76.11;99126.80;1750802;81;20443;-86
2020/12/18 02:43:47;;;;;;;;;;;;;;;3.89;76.14;99126.96;1760994;80;24603;-86
2020/12/18 02:46:33;;;;;;;;;;;;;;;3.90;76.12;99124.77;1742591;81;22435;-87
2020/12/18 02:49:19;;;;;;;;;;;;;;;3.88;76.14;99116.20;1747870;81;26982;-88
2020/12/18 02:52:06;;;;;;;;;;;;;;;3.85;76.15;99113.72;1744493;81;24621;-87
2020/12/18 02:54:53;;;;;;;;;;;;;;;3.84;76.15;99118.49;1774849;80;20553;-87
2020/12/18 02:57:40;;;;;;;;;;;;;;;3.84;76.17;99129.70;1742469;81;24901;-87
2020/12/18 03:00:26;;;;;;;;;;;;;;;3.79;76.19;99129.85;1746293;81;22087;-87
2020/12/18 03:03:13;;;;;;;;;;;;;;;3.75;76.18;99137.32;1708767;82;26171;-87
2020/12/18 03:06:00;;;;;;;;;;;;;;;3.70;76.21;99145.68;1728501;82;24649;-87
2020/12/18 03:08:46;;;;;;;;;;;;;;;3.60;76.23;99148.59;1726934;82;20256;-86
2020/12/18 03:11:33;;;;;;;;;;;;;;;3.51;76.20;99147.55;1732383;81;24638;-87
2020/12/18 03:14:21;;;;;;;;;;;;;;;3.43;76.22;99154.27;1725748;82;23062;-87
2020/12/18 03:17:07;;;;;;;;;;;;;;;3.40;76.20;99160.81;1721296;82;27261;-87
2020/12/18 03:19:53;;;;;;;;;;;;;;;3.36;76.24;99156.63;1737324;82;24641;-86
2020/12/18 03:22:42;;;;;;;;;;;;;;;3.31;76.25;99158.06;1754043;81;20307;-86
2020/12/18 03:25:29;;;;;;;;;;;;;;;3.32;76.25;99159.77;1748710;81;25764;-87
2020/12/18 03:28:16;;;;;;;;;;;;;;;3.34;76.31;99162.28;1733136;81;21955;-86
2020/12/18 03:31:04;;;;;;;;;;;;;;;3.33;76.33;99162.73;1761057;81;26211;-86
2020/12/18 03:33:51;;;;;;;;;;;;;;;3.34;76.37;99167.02;1748407;81;24794;-86
2020/12/18 03:36:37;;;;;;;;;;;;;;;3.33;76.40;99162.73;1751340;81;20641;-87
2020/12/18 03:39:24;;;;;;;;;;;;;;;3.34;76.46;99167.45;1750525;81;24819;-86
2020/12/18 03:42:10;;;;;;;;;;;;;;;3.31;76.49;99166.27;1753354;81;23114;-87
2020/12/18 03:44:58;;;;;;;;;;;;;;;3.29;76.50;99171.92;1750745;81;26860;-86
2020/12/18 03:47:44;;;;;;;;;;;;;;;3.28;76.53;99172.36;1751741;81;24454;-86
2020/12/18 03:50:30;;;;;;;;;;;;;;;3.28;76.56;99170.22;1744825;81;20393;-86
2020/12/18 03:53:19;;;;;;;;;;;;;;;3.28;76.59;99168.48;1752330;81;25159;-87
2020/12/18 03:56:06;;;;;;;;;;;;;;;3.28;76.62;99168.92;1747707;81;22158;-86
2020/12/18 03:58:52;;;;;;;;;;;;;;;3.28;76.63;99170.22;1746947;81;26131;-86
2020/12/18 04:01:39;;;;;;;;;;;;;;;3.29;76.67;99175.80;1747818;81;24789;-86
2020/12/18 04:04:25;;;;;;;;;;;;;;;3.31;76.69;99164.97;1730076;81;20327;-86
2020/12/18 04:07:00;;;;;;;;;;;;;;;3.34;76.71;99162.28;1756398;81;24959;-86
2020/12/18 04:09:48;;;;;;;;;;;;;;;3.40;76.75;99159.96;1742929;81;22107;-86
2020/12/18 04:12:34;;;;;;;;;;;;;;;3.43;76.78;99159.89;1751103;81;25960;-87
2020/12/18 04:15:20;;;;;;;;;;;;;;;3.48;76.81;99169.66;1759427;81;24717;-86
2020/12/18 04:18:06;;;;;;;;;;;;;;;3.51;76.83;99173.43;1752961;81;20376;-87
2020/12/18 04:20:53;;;;;;;;;;;;;;;3.52;76.85;99178.57;1758193;81;25099;-87
2020/12/18 04:23:39;;;;;;;;;;;;;;;3.51;76.89;99178.16;1752840;81;22137;-88
2020/12/18 04:26:25;;;;;;;;;;;;;;;3.56;76.92;99176.73;1758783;81;26096;-87
2020/12/18 04:29:11;;;;;;;;;;;;;;;3.61;76.91;99177.00;1758850;81;24584;-88
2020/12/18 04:31:59;;;;;;;;;;;;;;;3.67;76.94;99181.14;1757190;81;20292;-87
2020/12/18 04:34:46;;;;;;;;;;;;;;;3.75;76.97;99183.06;1734178;81;24879;-88
2020/12/18 04:37:31;;;;;;;;;;;;;;;3.82;77.01;99188.91;1761724;81;22247;-88
2020/12/18 04:40:19;;;;;;;;;;;;;;;3.81;77.03;99186.77;1759561;81;26264;-87
2020/12/18 04:43:05;;;;;;;;;;;;;;;3.83;77.03;99187.55;1756976;81;25366;-87
2020/12/18 04:45:51;;;;;;;;;;;;;;;3.84;77.04;99189.69;1757508;81;20646;-87
2020/12/18 04:48:40;;;;;;;;;;;;;;;3.84;77.07;99196.16;1731334;81;25343;-87
2020/12/18 04:51:27;;;;;;;;;;;;;;;3.89;77.05;99189.95;1757790;81;22166;-86
2020/12/18 04:54:13;;;;;;;;;;;;;;;3.98;77.07;99191.42;1750916;81;26269;-87
2020/12/18 04:56:59;;;;;;;;;;;;;;;3.99;77.09;99193.95;1761581;80;24502;-87
2020/12/18 04:59:46;;;;;;;;;;;;;;;4.05;77.10;99192.46;1712517;81;20453;-87
2020/12/18 05:02:32;;;;;;;;;;;;;;;4.07;77.14;99197.60;1758560;81;24970;-88
2020/12/18 05:05:18;;;;;;;;;;;;;;;4.06;77.15;99198.05;1764070;81;23089;-87
2020/12/18 05:08:05;;;;;;;;;;;;;;;4.06;77.17;99203.67;1739788;81;25309;-87
2020/12/18 05:10:51;;;;;;;;;;;;;;;4.02;77.18;99210.70;1754340;81;24780;-86
2020/12/18 05:13:38;;;;;;;;;;;;;;;4.04;77.20;99204.16;1748828;80;20290;-86
2020/12/18 05:16:25;;;;;;;;;;;;;;;3.98;77.21;99209.55;1725030;82;26607;-87
2020/12/18 05:19:12;;;;;;;;;;;;;;;4.01;77.19;99206.85;1740319;81;22035;-87
2020/12/18 05:22:01;;;;;;;;;;;;;;;4.03;77.20;99214.14;1752475;80;26988;-87
2020/12/18 05:24:48;;;;;;;;;;;;;;;4.04;77.21;99214.06;1714430;82;25369;-88
2020/12/18 05:27:22;;;;;;;;;;;;;;;4.10;77.23;99213.88;1722130;81;20300;-87
2020/12/18 05:29:56;;;;;;;;;;;;;;;4.18;77.24;99217.53;1715886;83;24958;-86
2020/12/18 05:32:30;;;;;;;;;;;;;;;4.17;77.28;99212.80;1745660;81;22988;-87
2020/12/18 05:35:17;;;;;;;;;;;;;;;4.13;77.29;99211.66;1749139;81;26176;-87
2020/12/18 05:38:05;;;;;;;;;;;;;;;4.14;77.30;99213.36;1740704;82;25004;-87
2020/12/18 05:40:51;;;;;;;;;;;;;;;4.18;77.31;99219.68;1732811;82;20458;-87
2020/12/18 05:43:38;;;;;;;;;;;;;;;4.12;77.32;99213.39;1716743;82;24845;-87
2020/12/18 05:46:25;;;;;;;;;;;;;;;4.07;77.32;99220.47;1752499;81;22313;-87
2020/12/18 05:49:13;;;;;;;;;;;;;;;4.06;77.34;99220.50;1754818;81;26151;-87
2020/12/18 05:51:59;;;;;;;;;;;;;;;4.00;77.33;99221.98;1750537;81;23974;-87
2020/12/18 05:54:46;;;;;;;;;;;;;;;3.97;77.34;99222.94;1723796;82;20388;-87
2020/12/18 05:57:32;;;;;;;;;;;;;;;3.95;77.33;99223.87;1747480;81;24914;-87
2020/12/18 06:00:19;;;;;;;;;;;;;;;3.91;77.35;99236.52;1749762;81;22008;-87
2020/12/18 06:03:06;;;;;;;;;;;;;;;3.84;77.33;99230.67;1720100;82;26126;-86
2020/12/18 06:05:52;;;;;;;;;;;;;;;3.81;77.35;99230.78;1717096;82;24813;-87
2020/12/18 06:08:38;;;;;;;;;;;;;;;3.77;77.35;99233.88;1706661;82;20258;-87
2020/12/18 06:11:25;;;;;;;;;;;;;;;3.74;77.37;99232.69;1727317;82;25079;-87
2020/12/18 06:14:11;;;;;;;;;;;;;;;3.69;77.37;99239.75;1749399;81;21817;-86
2020/12/18 06:17:00;;;;;;;;;;;;;;;3.68;77.40;99237.20;1721499;82;26211;-87
2020/12/18 06:19:46;;;;;;;;;;;;;;;3.69;77.40;99241.48;1728086;82;24629;-87
2020/12/18 06:22:33;;;;;;;;;;;;;;;3.71;77.44;99238.38;1724041;82;20272;-87
2020/12/18 06:25:21;;;;;;;;;;;;;;;3.69;77.48;99243.62;1727731;82;25767;-87
2020/12/18 06:28:08;;;;;;;;;;;;;;;3.69;77.48;99242.34;1724920;82;21298;-87
2020/12/18 06:30:54;;;;;;;;;;;;;;;3.68;77.52;99249.69;1722659;82;26089;-87
2020/12/18 06:33:40;;;;;;;;;;;;;;;3.72;77.54;99242.67;1701246;83;25158;-87
2020/12/18 06:36:27;;;;;;;;;;;;;;;3.73;77.58;99241.34;1721518;83;20292;-87
2020/12/18 06:39:18;;;;;;;;;;;;;;;3.75;77.60;99240.86;1723240;83;25916;-87
2020/12/18 06:42:06;;;;;;;;;;;;;;;3.80;77.64;99242.02;1725576;82;21925;-87
2020/12/18 06:44:52;;;;;;;;;;;;;;;3.81;77.67;99245.02;1726741;82;26197;-86
2020/12/18 06:47:39;;;;;;;;;;;;;;;3.77;77.71;99253.30;1715572;82;24702;-86
2020/12/18 06:50:28;;;;;;;;;;;;;;;3.77;77.73;99252.45;1719299;83;20531;-86
2020/12/18 06:53:15;;;;;;;;;;;;;;;3.77;77.74;99252.45;1711857;82;25014;-87
2020/12/18 06:56:03;;;;;;;;;;;;;;;3.82;77.76;99250.56;1715079;82;22116;-86
2020/12/18 06:58:50;;;;;;;;;;;;;;;3.86;77.80;99257.38;1707791;83;27165;-86
2020/12/18 07:01:41;;;;;;;;;;;;;;;3.92;77.82;99257.64;1719923;82;25078;-87
2020/12/18 07:04:28;;;;;;;;;;;;;;;3.97;77.84;99255.76;1727464;82;20269;-87
2020/12/18 07:07:15;;;;;;;;;;;;;;;4.01;77.89;99257.35;1726685;82;24913;-86
2020/12/18 07:10:02;;;;;;;;;;;;;;;4.03;77.93;99260.75;1725330;82;22172;-86
2020/12/18 07:12:49;;;;;;;;;;;;;;;4.07;77.96;99260.61;1706669;83;26241;-86
2020/12/18 07:15:35;;;;;;;;;;;;;;;4.09;77.98;99259.28;1739267;81;24725;-86
2020/12/18 07:18:22;;;;;;;;;;;;;;;4.10;78.00;99266.12;1748116;81;20569;-86
2020/12/18 07:21:09;;;;;;;;;;;;;;;4.05;78.02;99262.83;1718949;81;25579;-86
2020/12/18 07:23:56;;;;;;;;;;;;;;;4.04;78.03;99262.42;1754058;81;22217;-87
2020/12/18 07:26:42;;;;;;;;;;;;;;;4.07;78.03;99266.23;1754259;81;27022;-86
2020/12/18 07:29:28;;;;;;;;;;;;;;;4.06;78.05;99266.67;1746595;81;24755;-86
2020/12/18 07:32:15;;;;;;;;;;;;;;;4.06;78.06;99265.83;1748264;81;20363;-87
2020/12/18 07:35:03;;;;;;;;;;;;;;;4.07;78.06;99267.53;1745948;81;24988;-86
2020/12/18 07:37:50;;;;;;;;;;;;;;;4.12;78.06;99266.94;1745311;81;22096;-86
2020/12/18 07:40:38;;;;;;;;;;;;;;;4.20;78.09;99268.83;1743542;81;26182;-86
2020/12/18 07:43:25;;;;;;;;;;;;;;;4.24;78.11;99271.75;1753001;81;24781;-86
2020/12/18 07:46:12;;;;;;;;;;;;;;;4.27;78.11;99273.38;1748956;81;20492;-87
2020/12/18 07:48:59;;;;;;;;;;;;;;;4.33;78.14;99274.49;1750564;81;24976;-86
2020/12/18 07:51:46;;;;;;;;;;;;;;;4.39;78.14;99271.27;1748790;81;22141;-87
2020/12/18 07:54:34;;;;;;;;;;;;;;;4.45;78.19;99275.41;1748627;81;26123;-86
2020/12/18 07:57:21;;;;;;;;;;;;;;;4.45;78.20;99276.70;1753163;81;24635;-86
2020/12/18 08:00:08;;;;;;;;;;;;;;;4.43;78.21;99271.56;1749093;81;20189;-86
2020/12/18 08:02:56;;;;;;;;;;;;;;;4.46;78.20;99272.78;1745168;81;24928;-86
2020/12/18 08:05:43;;;;;;;;;;;;;;;4.52;78.20;99277.77;1752378;81;22140;-87
2020/12/18 08:08:36;;;;;;;;;;;;;;;4.52;78.21;99275.63;1729812;81;26891;-86
2020/12/18 08:11:24;;;;;;;;;;;;;;;4.55;78.22;99272.47;1759761;81;24419;-87
2020/12/18 08:14:18;;;;;;;;;;;;;;;4.59;78.20;99271.91;1741166;81;20382;-86
2020/12/18 08:17:07;;;;;;;;;;;;;;;4.63;78.23;99274.83;1743341;81;25157;-87
2020/12/18 08:19:55;;;;;;;;;;;;;;;4.61;78.23;99272.72;1738248;81;22138;-87
2020/12/18 08:22:43;;;;;;;;;;;;;;;4.58;78.21;99281.91;1751630;81;27678;-87
2020/12/18 08:25:31;;;;;;;;;;;;;;;4.55;78.20;99278.95;1735385;81;24693;-87
2020/12/18 08:28:19;;;;;;;;;;;;;;;4.60;78.20;99283.98;1742588;81;20269;-87
2020/12/18 08:31:09;;;;;;;;;;;;;;;4.63;78.20;99285.20;1746140;81;24446;-87
2020/12/18 08:33:58;;;;;;;;;;;;;;;4.64;78.18;99282.53;1746175;81;22161;-87
2020/12/18 08:36:45;;;;;;;;;;;;;;;4.68;78.20;99298.86;1745427;81;26147;-87
2020/12/18 08:39:32;;;;;;;;;;;;;;;4.68;78.20;99291.08;1749639;81;24614;-87
2020/12/18 08:42:19;;;;;;;;;;;;;;;4.74;78.18;99293.92;1745121;81;20892;-87
2020/12/18 08:45:06;;;;;;;;;;;;;;;4.81;78.20;99301.88;1749296;81;24884;-87
2020/12/18 08:47:53;;;;;;;;;;;;;;;4.77;78.18;99301.14;1747551;81;22217;-87
2020/12/18 08:50:42;;;;;;;;;;;;;;;4.79;78.18;99298.06;1740923;81;26132;-87
2020/12/18 08:53:29;;;;;;;;;;;;;;;4.81;78.17;99303.17;1745801;81;24679;-87
2020/12/18 08:56:21;;;;;;;;;;;;;;;4.76;78.16;99305.92;1723994;81;20342;-91
2020/12/18 08:59:08;;;;;;;;;;;;;;;4.74;78.13;99308.19;1734800;81;24869;-86
2020/12/18 09:01:56;;;;;;;;;;;;;;;4.75;78.13;99313.30;1743722;81;22127;-87
2020/12/18 09:04:46;;;;;;;;;;;;;;;4.74;78.12;99314.66;1703729;81;27050;-86
2020/12/18 09:07:32;;;;;;;;;;;;;;;4.76;78.09;99312.41;1729158;81;24961;-87
2020/12/18 09:10:19;;;;;;;;;;;;;;;4.80;78.09;99311.88;1748982;81;20369;-87
2020/12/18 09:13:08;;;;;;;;;;;;;;;4.83;78.07;99314.36;1745631;81;24979;-87
2020/12/18 09:15:56;;;;;;;;;;;;;;;4.86;78.07;99316.39;1744881;80;22958;-87
2020/12/18 09:19:01;;;;;;;;;;;;;;;4.83;78.06;99313.91;1727829;82;26257;-87
2020/12/18 09:21:48;;;;;;;;;;;;;;;4.86;78.03;99318.13;1710291;82;24371;-87
2020/12/18 09:24:35;;;;;;;;;;;;;;;4.88;78.03;99320.23;1749172;81;20311;-87
2020/12/18 09:27:21;;;;;;;;;;;;;;;4.90;78.03;99318.45;1755898;80;25788;-87
2020/12/18 09:30:08;;;;;;;;;;;;;;;4.93;77.99;99314.45;1752053;81;22132;-86
2020/12/18 09:32:55;;;;;;;;;;;;;;;4.95;78.01;99316.55;1717033;82;26234;-87
2020/12/18 09:35:43;;;;;;;;;;;;;;;4.96;77.99;99316.96;1717080;82;24636;-87
2020/12/18 09:38:31;;;;;;;;;;;;;;;5.00;77.97;99318.10;1720475;83;20675;-86
2020/12/18 09:41:19;;;;;;;;;;;;;;;5.08;77.97;99313.08;1658212;82;25019;-87
2020/12/18 09:44:06;;;;;;;;;;;;;;;5.12;77.97;99310.81;1753103;80;22321;-85
2020/12/18 09:47:01;;;;;;;;;;;;;;;5.18;77.96;99312.75;1749025;81;20664;-86
2020/12/18 09:49:50;;;;;;;;;;;;;;;5.24;77.96;99315.55;1711158;81;25190;-86
2020/12/18 09:52:37;;;;;;;;;;;;;;;5.22;77.96;99315.63;1724750;82;20295;-86
2020/12/18 09:55:25;;;;;;;;;;;;;;;5.16;77.94;99314.98;1751758;81;25194;-86
2020/12/18 09:58:12;;;;;;;;;;;;;;;5.10;77.90;99316.03;1751895;81;22132;-88
2020/12/18 10:01:00;;;;;;;;;;;;;;;5.07;77.86;99316.16;1750111;81;26159;-86
2020/12/18 10:03:48;;;;;;;;;;;;;;;5.03;77.82;99314.09;1754127;81;25455;-86
2020/12/18 10:06:39;;;;;;;;;;;;;;;5.05;77.78;99311.45;1715323;83;20502;-86
2020/12/18 10:09:28;;;;;;;;;;;;;;;5.11;77.77;99312.55;1759627;81;24885;-87
2020/12/18 10:12:15;;;;;;;;;;;;;;;5.16;77.74;99318.43;1702993;83;22037;-87
2020/12/18 10:15:02;;;;;;;;;;;;;;;5.24;77.74;99312.96;1727237;82;26977;-87
2020/12/18 10:18:02;;;;;;;;;;;;;;;5.34;77.73;99315.66;1726126;81;25588;-88
2020/12/18 10:20:49;;;;;;;;;;;;;;;5.35;77.74;99312.14;1750216;80;20560;-87
2020/12/18 10:23:40;;;;;;;;;;;;;;;5.39;77.74;99315.90;1752627;80;24300;-87
2020/12/18 10:26:33;;;;;;;;;;;;;;;5.44;77.71;99305.35;1753318;80;22129;-87
2020/12/18 10:29:20;;;;;;;;;;;;;;;5.45;77.70;99306.58;1742042;80;26032;-89
2020/12/18 10:32:06;;;;;;;;;;;;;;;5.50;77.68;99305.59;1739485;82;24999;-88
2020/12/18 10:34:53;;;;;;;;;;;;;;;5.49;77.66;99302.14;1708480;81;20275;-89
2020/12/18 10:37:39;;;;;;;;;;;;;;;5.50;77.65;99304.29;1726638;81;24871;-87
2020/12/18 10:40:27;;;;;;;;;;;;;;;5.55;77.59;99304.52;1725805;81;22121;-89
2020/12/18 10:43:14;;;;;;;;;;;;;;;5.63;77.57;99302.93;1752624;81;26340;-88
2020/12/18 10:46:01;;;;;;;;;;;;;;;5.71;77.55;99302.22;1744181;80;25469;-87
2020/12/18 10:48:49;;;;;;;;;;;;;;;5.80;77.54;99301.88;1753764;81;20596;-87
2020/12/18 10:51:36;;;;;;;;;;;;;;;5.82;77.54;99300.92;1756260;81;24857;-88
2020/12/18 10:54:23;;;;;;;;;;;;;;;5.88;77.53;99304.64;1754584;81;22215;-87
2020/12/18 10:57:12;;;;;;;;;;;;;;;5.89;77.51;99301.11;1734007;81;26204;-88
2020/12/18 11:00:02;;;;;;;;;;;;;;;5.92;77.49;99294.97;1710686;83;24874;-87
2020/12/18 11:02:54;;;;;;;;;;;;;;;5.97;77.47;99293.48;1730947;82;20350;-87
2020/12/18 11:05:42;;;;;;;;;;;;;;;6.03;77.45;99293.27;1747743;81;24920;-87
2020/12/18 11:08:29;;;;;;;;;;;;;;;6.02;77.42;99288.52;1717109;83;22170;-87
2020/12/18 11:11:16;;;;;;;;;;;;;;;6.06;77.39;99291.38;1711977;83;26283;-88
2020/12/18 11:14:02;;;;;;;;;;;;;;;6.14;77.36;99296.30;1725121;83;24915;-87
2020/12/18 11:16:51;;;;;;;;;;;;;;;6.19;77.35;99291.33;1740734;81;20664;-87
2020/12/18 11:19:38;;;;;;;;;;;;;;;6.27;77.32;99297.05;1728835;81;25832;-87
2020/12/18 11:22:27;;;;;;;;;;;;;;;6.34;77.31;99304.17;1744421;81;22929;-88
2020/12/18 11:25:14;;;;;;;;;;;;;;;6.38;77.28;99298.42;1703744;81;26031;-88
2020/12/18 11:28:01;;;;;;;;;;;;;;;6.43;77.26;99289.98;1730985;81;24737;-88
2020/12/18 11:30:47;;;;;;;;;;;;;;;6.51;77.22;99288.77;1723322;81;20264;-88
2020/12/18 11:33:34;;;;;;;;;;;;;;;6.58;77.21;99286.32;1770693;80;24870;-89
2020/12/18 11:36:22;;;;;;;;;;;;;;;6.64;77.19;99287.83;1764313;80;22235;-88
2020/12/18 11:39:08;;;;;;;;;;;;;;;6.70;77.17;99285.83;1759751;81;25703;-87
2020/12/18 11:41:56;;;;;;;;;;;;;;;6.76;77.13;99288.64;1758365;81;24614;-87
2020/12/18 11:44:43;;;;;;;;;;;;;;;6.76;77.09;99278.69;1749688;81;20175;-89
2020/12/18 11:47:29;;;;;;;;;;;;;;;6.73;77.04;99279.19;1753491;81;24982;-89
2020/12/18 11:50:16;;;;;;;;;;;;;;;6.68;77.02;99273.33;1751402;81;22113;-88
2020/12/18 11:53:04;;;;;;;;;;;;;;;6.68;76.95;99273.33;1756471;80;26992;-89
2020/12/18 11:55:51;;;;;;;;;;;;;;;6.70;76.93;99267.63;1752375;81;24646;-88
2020/12/18 11:58:42;;;;;;;;;;;;;;;6.72;76.89;99270.14;1740599;80;20480;-88
2020/12/18 12:01:29;;;;;;;;;;;;;;;6.75;76.84;99267.43;1729358;81;24767;-87
2020/12/18 12:04:16;;;;;;;;;;;;;;;6.81;76.83;99264.58;1762852;81;22226;-88
2020/12/18 12:07:04;;;;;;;;;;;;;;;6.89;76.75;99261.64;1749747;80;26186;-90
2020/12/18 12:09:50;;;;;;;;;;;;;;;7.01;76.70;99265.89;1751820;81;24675;-87
2020/12/18 12:12:37;;;;;;;;;;;;;;;7.04;76.70;99256.64;1753837;80;20333;-88
2020/12/18 12:15:28;;;;;;;;;;;;;;;7.07;76.68;99260.88;1745539;81;26676;-88
2020/12/18 12:18:14;;;;;;;;;;;;;;;7.11;76.63;99257.23;1755334;81;21468;-88
2020/12/18 12:21:02;;;;;;;;;;;;;;;7.12;76.61;99263.68;1750261;81;26132;-88
2020/12/18 12:23:49;;;;;;;;;;;;;;;7.23;76.58;99255.41;1749590;80;24491;-87
2020/12/18 12:26:35;;;;;;;;;;;;;;;7.30;76.52;99255.54;1732348;81;20254;-88
2020/12/18 12:29:22;;;;;;;;;;;;;;;7.33;76.49;99259.75;1729983;82;25295;-88
2020/12/18 12:32:08;;;;;;;;;;;;;;;7.35;76.43;99255.34;1729682;82;22122;-88
2020/12/18 12:34:55;;;;;;;;;;;;;;;7.40;76.38;99249.02;1724840;82;25560;-87
2020/12/18 12:37:41;;;;;;;;;;;;;;;7.43;76.33;99247.56;1732236;82;24677;-89
2020/12/18 12:40:28;;;;;;;;;;;;;;;7.35;76.29;99242.31;1729194;82;20370;-88
2020/12/18 12:43:16;;;;;;;;;;;;;;;7.33;76.25;99238.92;1727209;82;25195;-88
2020/12/18 12:46:04;;;;;;;;;;;;;;;7.39;76.18;99239.50;1698696;82;22081;-88
2020/12/18 12:48:52;;;;;;;;;;;;;;;7.39;76.13;99243.86;1727869;82;27200;-87
2020/12/18 12:51:40;;;;;;;;;;;;;;;7.38;76.09;99242.16;1715451;82;24370;-88
2020/12/18 12:54:29;;;;;;;;;;;;;;;7.35;76.05;99238.41;1694201;82;20621;-88
2020/12/18 12:57:15;;;;;;;;;;;;;;;7.24;76.01;99238.03;1733751;82;24904;-88
2020/12/18 13:00:02;;;;;;;;;;;;;;;7.26;75.93;99235.73;1733277;82;22105;-88
2020/12/18 13:02:55;;;;;;;;;;;;;;;7.32;75.89;99233.32;1725393;82;26130;-88
2020/12/18 13:05:42;;;;;;;;;;;;;;;7.39;75.81;99234.75;1702469;82;24411;-88
2020/12/18 13:08:29;;;;;;;;;;;;;;;7.43;75.77;99238.90;1730340;82;20323;-88
2020/12/18 13:11:19;;;;;;;;;;;;;;;7.47;75.71;99236.09;1733389;81;25141;-88
2020/12/18 13:14:09;;;;;;;;;;;;;;;7.52;75.65;99235.91;1729361;82;20295;-89
2020/12/18 13:16:56;;;;;;;;;;;;;;;7.51;75.63;99235.52;1720799;82;26339;-88
2020/12/18 13:19:43;;;;;;;;;;;;;;;7.49;75.56;99235.58;1730487;82;24628;-87
2020/12/18 13:22:30;;;;;;;;;;;;;;;7.52;75.52;99236.76;1731050;82;20565;-87
2020/12/18 13:25:16;;;;;;;;;;;;;;;7.54;75.49;99228.85;1723517;80;25014;-88
2020/12/18 13:28:09;;;;;;;;;;;;;;;7.55;75.45;99234.00;1692382;83;21953;-87
2020/12/18 13:30:55;;;;;;;;;;;;;;;7.51;75.39;99234.22;1723064;83;26104;-87
2020/12/18 13:33:43;;;;;;;;;;;;;;;7.48;75.36;99237.78;1722295;83;24637;-88
2020/12/18 13:36:29;;;;;;;;;;;;;;;7.47;75.30;99231.36;1722129;83;20294;-89
2020/12/18 13:39:16;;;;;;;;;;;;;;;7.50;75.28;99238.58;1722872;83;24954;-88
2020/12/18 13:42:05;;;;;;;;;;;;;;;7.52;75.23;99235.91;1722636;83;22124;-87
2020/12/18 13:44:55;;;;;;;;;;;;;;;7.45;75.20;99234.03;1690240;83;26218;-88
2020/12/18 13:47:42;;;;;;;;;;;;;;;7.52;75.13;99241.13;1724079;83;24598;-88
2020/12/18 13:50:29;;;;;;;;;;;;;;;7.45;75.08;99240.99;1723247;83;20392;-88
2020/12/18 13:53:15;;;;;;;;;;;;;;;7.50;75.02;99247.69;1720465;83;24874;-88
2020/12/18 13:56:02;;;;;;;;;;;;;;;7.49;75.00;99243.84;1721831;83;22115;-88
2020/12/18 13:58:51;;;;;;;;;;;;;;;7.32;74.96;99242.44;1719594;83;26210;-88
2020/12/18 14:01:40;;;;;;;;;;;;;;;7.07;74.93;99256.52;1690983;83;25262;-88
2020/12/18 14:04:27;;;;;;;;;;;;;;;7.03;74.85;99251.06;1724205;83;20605;-88
2020/12/18 14:07:14;;;;;;;;;;;;;;;7.13;74.76;99251.52;1719111;83;25079;-87
2020/12/18 14:10:01;;;;;;;;;;;;;;;7.26;74.69;99253.95;1722188;83;22155;-88
2020/12/18 14:12:48;;;;;;;;;;;;;;;7.34;74.67;99251.03;1692005;83;26077;-88
2020/12/18 14:15:34;;;;;;;;;;;;;;;7.30;74.64;99245.58;1723368;83;24680;-88
2020/12/18 14:18:21;;;;;;;;;;;;;;;7.28;74.59;99251.30;1722739;83;20455;-88
2020/12/18 14:21:08;;;;;;;;;;;;;;;7.21;74.55;99252.02;1723626;83;24971;-88
2020/12/18 14:23:56;;;;;;;;;;;;;;;7.11;74.50;99258.08;1719405;83;22415;-88
2020/12/18 14:26:43;;;;;;;;;;;;;;;6.96;74.43;99250.92;1724492;82;26295;-87
2020/12/18 14:29:29;;;;;;;;;;;;;;;6.81;74.35;99256.78;1727805;83;24634;-88
2020/12/18 14:32:16;;;;;;;;;;;;;;;6.61;74.28;99256.72;1690451;83;20272;-88
2020/12/18 14:35:04;;;;;;;;;;;;;;;6.43;74.20;99261.39;1727804;83;25125;-88
2020/12/18 14:37:52;;;;;;;;;;;;;;;6.28;74.15;99266.27;1689879;84;21872;-88
2020/12/18 14:40:39;;;;;;;;;;;;;;;6.13;74.07;99266.02;1724626;83;26138;-87
2020/12/18 14:43:29;;;;;;;;;;;;;;;5.94;74.00;99266.34;1707389;83;24564;-88